createdAt,value
2023-03-27T00:01:25.959Z,12.40
2023-03-27T00:03:53.773Z,12.30
2023-03-27T00:06:22.156Z,12.30
2023-03-27T00:08:51.375Z,12.10
2023-03-27T00:14:04.850Z,12.70
2023-03-27T00:16:32.183Z,12.70
2023-03-27T00:19:00.631Z,12.60
2023-03-27T00:21:28.385Z,12.60
2023-03-27T00:23:56.870Z,12.50
2023-03-27T00:26:24.570Z,12.50
2023-03-27T00:28:52.983Z,12.40
2023-03-27T00:31:20.163Z,12.10
2023-03-27T00:33:47.612Z,12.50
2023-03-27T00:36:15.595Z,12.60
2023-03-27T00:38:43.979Z,12.60
2023-03-27T00:41:11.404Z,12.50
2023-03-27T00:43:43.900Z,12.40
2023-03-27T00:46:21.524Z,12.50
2023-03-27T00:48:51.866Z,12.70
2023-03-27T00:51:21.157Z,12.80
2023-03-27T00:53:49.678Z,12.60
2023-03-27T00:56:18.155Z,12.50
2023-03-27T00:58:49.922Z,12.40
2023-03-27T01:01:19.430Z,12.40
2023-03-27T01:03:49.311Z,12.60
2023-03-27T01:06:17.577Z,12.60
2023-03-27T01:08:46.058Z,12.60
2023-03-27T01:11:22.451Z,12.30
2023-03-27T01:14:08.524Z,12.40
2023-03-27T01:16:45.085Z,12.40
2023-03-27T01:19:35.448Z,12.20
2023-03-27T01:22:30.812Z,12.10
2023-03-27T01:25:35.904Z,12.20
2023-03-27T01:28:27.761Z,12.10
2023-03-27T01:33:54.208Z,12.30
2023-03-27T01:36:34.993Z,12.30
2023-03-27T01:39:37.563Z,12.20
2023-03-27T01:42:31.068Z,12.00
2023-03-27T01:45:29.236Z,11.70
2023-03-27T01:48:45.768Z,11.50
2023-03-27T01:51:25.706Z,11.60
2023-03-27T01:53:58.443Z,11.70
2023-03-27T01:56:38.036Z,11.50
2023-03-27T01:59:13.181Z,11.50
2023-03-27T02:01:45.198Z,11.60
2023-03-27T02:04:20.788Z,11.50
2023-03-27T02:06:57.356Z,11.40
2023-03-27T02:09:37.478Z,11.50
2023-03-27T02:12:33.635Z,11.50
2023-03-27T02:15:23.435Z,11.30
2023-03-27T02:18:15.910Z,11.40
2023-03-27T02:20:43.156Z,11.40
2023-03-27T02:23:10.692Z,11.20
2023-03-27T02:25:44.443Z,11.10
2023-03-27T02:28:32.152Z,11.10
2023-03-27T02:31:32.334Z,10.60
2023-03-27T02:34:52.405Z,10.40
2023-03-27T02:37:36.352Z,10.50
2023-03-27T02:40:26.788Z,10.60
2023-03-27T02:42:59.806Z,11.00
2023-03-27T02:46:09.426Z,11.10
2023-03-27T02:48:47.820Z,11.20
2023-03-27T02:51:36.809Z,10.90
2023-03-27T02:54:10.170Z,11.00
2023-03-27T02:56:52.027Z,11.00
2023-03-27T02:59:28.996Z,10.90
2023-03-27T03:01:56.406Z,11.10
2023-03-27T03:04:29.845Z,11.20
2023-03-27T03:12:27.818Z,11.10
2023-03-27T03:14:55.177Z,11.20
2023-03-27T03:17:22.311Z,11.10
2023-03-27T03:19:49.962Z,11.30
2023-03-27T03:22:17.316Z,11.00
2023-03-27T03:24:44.624Z,10.60
2023-03-27T03:27:12.904Z,10.70
2023-03-27T03:29:41.377Z,10.10
2023-03-27T03:32:08.752Z,9.80
2023-03-27T03:34:36.120Z,10.00
2023-03-27T03:37:03.436Z,10.40
2023-03-27T03:39:31.033Z,10.70
2023-03-27T03:41:58.206Z,10.80
2023-03-27T03:44:25.403Z,10.70
2023-03-27T03:46:52.587Z,10.70
2023-03-27T03:49:19.810Z,10.50
2023-03-27T03:51:47.036Z,10.60
2023-03-27T03:54:31.650Z,10.70
2023-03-27T03:56:58.843Z,10.80
2023-03-27T03:59:26.744Z,10.40
2023-03-27T04:01:54.315Z,10.00
2023-03-27T04:04:29.438Z,10.30
2023-03-27T04:06:58.483Z,10.50
2023-03-27T04:09:25.832Z,10.70
2023-03-27T04:11:52.942Z,10.90
2023-03-27T04:14:20.144Z,10.90
2023-03-27T04:16:47.396Z,10.60
2023-03-27T04:19:15.244Z,10.20
2023-03-27T04:21:42.606Z,10.10
2023-03-27T04:24:09.813Z,10.40
2023-03-27T04:26:37.061Z,10.70
2023-03-27T04:29:04.312Z,10.70
2023-03-27T04:31:34.633Z,10.50
2023-03-27T04:34:03.160Z,10.40
2023-03-27T04:36:31.333Z,10.40
2023-03-27T04:38:58.571Z,10.50
2023-03-27T04:41:29.848Z,10.60
2023-03-27T04:43:57.098Z,10.50
2023-03-27T04:46:24.362Z,10.50
2023-03-27T04:48:51.542Z,10.60
2023-03-27T04:51:18.860Z,10.80
2023-03-27T04:53:46.397Z,10.90
2023-03-27T04:56:13.606Z,10.70
2023-03-27T04:58:41.383Z,10.50
2023-03-27T05:01:08.529Z,10.80
2023-03-27T05:03:35.919Z,11.00
2023-03-27T05:06:04.829Z,10.90
2023-03-27T05:08:32.813Z,11.00
2023-03-27T05:11:00.031Z,11.30
2023-03-27T05:19:06.695Z,10.80
2023-03-27T05:21:33.968Z,10.90
2023-03-27T05:24:01.480Z,11.10
2023-03-27T05:26:28.680Z,11.40
2023-03-27T05:28:55.958Z,11.50
2023-03-27T05:31:23.649Z,11.70
2023-03-27T05:36:40.210Z,11.80
2023-03-27T05:39:07.462Z,11.80
2023-03-27T05:41:35.434Z,11.80
2023-03-27T05:46:48.344Z,11.90
2023-03-27T05:49:15.672Z,12.10
2023-03-27T05:51:47.151Z,12.00
2023-03-27T05:54:16.599Z,11.90
2023-03-27T05:57:08.033Z,12.00
2023-03-27T05:59:36.448Z,12.10
2023-03-27T06:02:04.271Z,12.00
2023-03-27T06:04:31.576Z,12.20
2023-03-27T06:06:58.845Z,12.40
2023-03-27T06:09:26.010Z,12.60
2023-03-27T06:11:53.490Z,12.80
2023-03-27T06:14:20.776Z,12.90
2023-03-27T06:16:48.902Z,13.00
2023-03-27T06:19:17.133Z,13.00
2023-03-27T06:21:44.743Z,12.60
2023-03-27T06:24:12.627Z,12.10
2023-03-27T06:26:41.341Z,11.90
2023-03-27T06:29:11.941Z,11.60
2023-03-27T06:31:39.233Z,12.00
2023-03-27T06:34:06.475Z,12.20
2023-03-27T06:36:33.868Z,12.40
2023-03-27T06:39:06.393Z,12.50
2023-03-27T06:41:35.685Z,12.60
2023-03-27T06:44:02.870Z,12.60
2023-03-27T06:46:38.920Z,12.10
2023-03-27T06:49:12.345Z,11.90
2023-03-27T06:51:39.566Z,12.30
2023-03-27T06:54:06.849Z,12.20
2023-03-27T06:59:18.521Z,11.80
2023-03-27T07:01:46.613Z,11.70
2023-03-27T07:04:13.945Z,11.70
2023-03-27T07:06:45.055Z,11.70
2023-03-27T07:09:12.208Z,11.80
2023-03-27T07:11:39.415Z,11.80
2023-03-27T07:14:06.635Z,12.00
2023-03-27T07:16:38.933Z,12.30
2023-03-27T07:19:06.105Z,12.30
2023-03-27T07:21:33.411Z,12.80
2023-03-27T07:24:00.668Z,12.90
2023-03-27T07:26:28.783Z,13.00
2023-03-27T07:29:00.875Z,13.30
2023-03-27T07:31:42.409Z,13.50
2023-03-27T07:34:16.650Z,13.70
2023-03-27T07:36:44.827Z,14.10
2023-03-27T07:39:14.231Z,14.10
2023-03-27T07:41:41.549Z,14.10
2023-03-27T07:44:08.689Z,14.20
2023-03-27T07:46:38.327Z,14.10
2023-03-27T07:49:17.533Z,14.00
2023-03-27T07:51:47.602Z,14.00
2023-03-27T07:54:15.574Z,13.70
2023-03-27T07:56:42.832Z,13.60
2023-03-27T07:59:11.429Z,13.80
2023-03-27T08:01:42.706Z,13.90
2023-03-27T08:04:10.247Z,13.80
2023-03-27T08:06:37.575Z,13.90
2023-03-27T08:09:05.899Z,13.80
2023-03-27T08:11:33.090Z,13.80
2023-03-27T08:14:00.423Z,13.70
2023-03-27T08:16:29.959Z,13.70
2023-03-27T08:18:58.866Z,13.80
2023-03-27T08:21:26.456Z,13.70
2023-03-27T08:23:57.721Z,13.90
2023-03-27T08:26:26.734Z,14.00
2023-03-27T08:28:56.339Z,13.90
2023-03-27T08:31:24.535Z,14.10
2023-03-27T08:33:52.698Z,14.20
2023-03-27T08:36:20.213Z,14.20
2023-03-27T08:38:47.592Z,14.10
2023-03-27T08:41:39.120Z,14.10
2023-03-27T08:44:10.556Z,14.30
2023-03-27T08:46:48.164Z,14.50
2023-03-27T08:49:20.530Z,14.80
2023-03-27T08:51:59.428Z,14.70
2023-03-27T08:54:31.345Z,14.90
2023-03-27T08:56:58.976Z,15.10
2023-03-27T08:59:30.310Z,15.20
2023-03-27T09:02:26.427Z,15.10
2023-03-27T09:05:15.600Z,15.00
2023-03-27T09:10:39.067Z,14.50
2023-03-27T09:13:18.933Z,14.40
2023-03-27T09:16:05.152Z,14.20
2023-03-27T09:18:38.016Z,14.40
2023-03-27T09:21:12.593Z,14.40
2023-03-27T09:23:47.621Z,14.40
2023-03-27T09:26:22.465Z,14.40
2023-03-27T09:29:03.321Z,14.50
2023-03-27T09:31:34.641Z,14.60
2023-03-27T09:36:51.975Z,14.70
2023-03-27T09:39:42.224Z,14.60
2023-03-27T09:42:19.445Z,14.60
2023-03-27T09:44:56.896Z,14.60
2023-03-27T09:47:51.476Z,14.60
2023-03-27T09:50:32.267Z,14.70
2023-03-27T09:53:19.232Z,14.80
2023-03-27T09:56:17.134Z,14.90
2023-03-27T09:58:49.155Z,14.90
2023-03-27T10:01:31.176Z,14.50
2023-03-27T10:03:59.890Z,14.50
2023-03-27T10:06:27.275Z,14.50
2023-03-27T10:08:56.488Z,14.40
2023-03-27T10:11:28.808Z,14.30
2023-03-27T10:13:57.433Z,14.20
2023-03-27T10:16:25.057Z,14.00
2023-03-27T10:18:55.825Z,13.60
2023-03-27T10:21:28.460Z,13.30
2023-03-27T10:24:17.866Z,12.70
2023-03-27T10:26:48.816Z,13.00
2023-03-27T10:29:32.958Z,12.90
2023-03-27T10:32:01.636Z,13.00
2023-03-27T10:34:32.630Z,12.90
2023-03-27T10:37:01.846Z,12.90
2023-03-27T10:39:34.270Z,13.00
2023-03-27T10:42:09.502Z,13.00
2023-03-27T10:44:41.056Z,12.70
2023-03-27T10:47:20.964Z,12.50
2023-03-27T10:50:09.673Z,12.70
2023-03-27T10:53:09.226Z,12.60
2023-03-27T10:55:57.035Z,12.30
2023-03-27T10:58:48.811Z,12.10
2023-03-27T11:01:27.899Z,12.50
2023-03-27T11:03:58.209Z,12.50
2023-03-27T11:06:31.554Z,12.30
2023-03-27T11:09:10.188Z,12.20
2023-03-27T11:11:47.557Z,12.20
2023-03-27T11:14:38.044Z,11.90
2023-03-27T11:17:08.707Z,11.80
2023-03-27T11:20:11.462Z,11.80
2023-03-27T11:22:46.409Z,11.90
2023-03-27T11:25:39.926Z,12.10
2023-03-27T11:28:48.738Z,12.20
2023-03-27T11:31:38.473Z,12.30
2023-03-27T11:34:32.762Z,12.60
2023-03-27T11:37:25.197Z,13.20
2023-03-27T11:40:27.010Z,13.40
2023-03-27T11:42:54.829Z,13.60
2023-03-27T11:45:25.350Z,13.80
2023-03-27T11:47:58.573Z,13.90
2023-03-27T11:51:03.821Z,13.90
2023-03-27T11:53:40.490Z,14.00
2023-03-27T11:56:25.853Z,14.10
2023-03-27T11:58:58.885Z,14.30
2023-03-27T12:01:27.303Z,14.40
2023-03-27T12:04:13.667Z,14.50
2023-03-27T12:06:47.024Z,14.60
2023-03-27T12:09:22.533Z,14.60
2023-03-27T12:12:08.424Z,14.00
2023-03-27T12:15:24.104Z,13.80
2023-03-27T12:18:08.361Z,13.70
2023-03-27T12:24:01.570Z,14.00
2023-03-27T12:29:44.283Z,14.30
2023-03-27T12:32:31.998Z,13.90
2023-03-27T12:35:06.543Z,13.80
2023-03-27T12:37:39.017Z,14.20
2023-03-27T12:40:27.488Z,14.70
2023-03-27T12:43:04.932Z,15.00
2023-03-27T12:48:13.541Z,15.50
2023-03-27T12:50:51.389Z,15.50
2023-03-27T12:53:31.225Z,15.70
2023-03-27T12:56:12.587Z,15.60
2023-03-27T12:58:41.252Z,15.70
2023-03-27T13:01:12.454Z,15.80
2023-03-27T13:04:14.978Z,15.90
2023-03-27T13:06:45.030Z,15.90
2023-03-27T13:09:17.996Z,15.70
2023-03-27T13:12:09.763Z,15.70
2023-03-27T13:14:39.969Z,15.60
2023-03-27T13:17:15.249Z,15.70
2023-03-27T13:19:47.859Z,15.60
2023-03-27T13:22:24.074Z,15.80
2023-03-27T13:25:10.091Z,15.60
2023-03-27T13:28:02.033Z,15.70
2023-03-27T13:30:46.945Z,16.20
2023-03-27T13:33:16.942Z,16.50
2023-03-27T13:36:02.757Z,17.10
2023-03-27T13:38:52.843Z,17.90
2023-03-27T13:41:45.065Z,18.80
2023-03-27T13:44:18.170Z,18.60
2023-03-27T13:46:54.177Z,18.70
2023-03-27T13:49:43.321Z,18.60
2023-03-27T13:52:33.755Z,18.60
2023-03-27T13:55:19.582Z,18.40
2023-03-27T13:58:05.271Z,21.60
2023-03-27T14:00:49.296Z,24.20
2023-03-27T14:03:49.436Z,22.50
2023-03-27T14:09:52.064Z,18.20
2023-03-27T14:12:41.309Z,17.60
2023-03-27T14:15:27.219Z,19.20
2023-03-27T14:17:57.144Z,19.10
2023-03-27T14:20:32.738Z,20.20
2023-03-27T14:23:32.609Z,20.30
2023-03-27T14:26:03.655Z,19.90
2023-03-27T14:28:59.117Z,20.50
2023-03-27T14:31:28.975Z,19.30
2023-03-27T14:34:28.316Z,17.50
2023-03-27T14:36:56.411Z,17.00
2023-03-27T14:39:27.963Z,18.10
2023-03-27T14:42:01.119Z,17.70
2023-03-27T14:44:32.250Z,17.90
2023-03-27T14:47:06.369Z,18.80
2023-03-27T14:49:38.999Z,21.00
2023-03-27T14:52:18.331Z,21.50
2023-03-27T14:54:55.209Z,21.40
2023-03-27T14:57:26.335Z,20.60
2023-03-27T14:59:54.618Z,21.10
2023-03-27T15:02:32.187Z,20.50
2023-03-27T15:08:01.930Z,18.90
2023-03-27T15:10:38.602Z,18.40
2023-03-27T15:13:10.871Z,17.80
2023-03-27T15:15:44.098Z,17.10
2023-03-27T15:18:19.222Z,16.60
2023-03-27T15:20:46.889Z,16.30
2023-03-27T15:23:20.373Z,16.00
2023-03-27T15:25:56.768Z,16.20
2023-03-27T15:28:46.037Z,15.70
2023-03-27T15:31:19.409Z,15.50
2023-03-27T15:34:03.402Z,15.60
2023-03-27T15:36:35.499Z,15.60
2023-03-27T15:39:04.422Z,15.60
2023-03-27T15:41:35.210Z,15.20
2023-03-27T15:44:09.979Z,15.00
2023-03-27T15:46:58.051Z,15.20
2023-03-27T15:49:34.290Z,15.10
2023-03-27T15:52:30.267Z,14.70
2023-03-27T15:54:58.480Z,14.80
2023-03-27T15:57:29.671Z,14.70
2023-03-27T16:00:10.587Z,14.60
2023-03-27T16:02:37.892Z,14.20
2023-03-27T16:05:06.448Z,14.30
2023-03-27T16:07:47.302Z,14.20
2023-03-27T16:10:30.021Z,14.00
2023-03-27T16:13:02.913Z,14.00
2023-03-27T16:15:39.452Z,14.00
2023-03-27T16:18:24.334Z,14.10
2023-03-27T16:20:51.955Z,14.10
2023-03-27T16:23:19.339Z,13.90
2023-03-27T16:25:46.586Z,13.80
2023-03-27T16:28:15.046Z,13.70
2023-03-27T16:30:42.494Z,13.70
2023-03-27T16:33:17.726Z,13.60
2023-03-27T16:35:45.899Z,13.50
2023-03-27T16:38:14.107Z,13.50
2023-03-27T16:40:42.096Z,13.40
2023-03-27T16:43:09.509Z,13.40
2023-03-27T16:45:37.792Z,13.30
2023-03-27T16:48:05.956Z,13.40
2023-03-27T16:50:33.912Z,13.40
2023-03-27T16:53:01.156Z,13.40
2023-03-27T16:55:29.967Z,13.50
2023-03-27T16:58:03.856Z,13.40
2023-03-27T17:00:38.402Z,13.30
2023-03-27T17:03:06.028Z,13.30
2023-03-27T17:05:36.336Z,13.40
2023-03-27T17:08:09.670Z,13.40
2023-03-27T17:10:39.389Z,13.40
2023-03-27T17:13:12.503Z,13.30
2023-03-27T17:15:42.862Z,13.20
2023-03-27T17:18:17.234Z,13.00
2023-03-27T17:21:13.796Z,13.00
2023-03-27T17:24:04.671Z,13.00
2023-03-27T17:26:38.127Z,13.00
2023-03-27T17:29:10.412Z,13.00
2023-03-27T17:31:38.856Z,13.00
2023-03-27T17:34:13.341Z,13.00
2023-03-27T17:36:45.268Z,12.90
2023-03-27T17:42:06.392Z,12.90
2023-03-27T17:44:33.818Z,12.80
2023-03-27T17:47:01.235Z,12.70
2023-03-27T17:49:30.072Z,12.70
2023-03-27T17:51:59.805Z,12.70
2023-03-27T17:54:27.151Z,12.60
2023-03-27T17:56:58.369Z,12.60
2023-03-27T17:59:26.420Z,12.60
2023-03-27T18:01:56.145Z,12.70
2023-03-27T18:04:24.760Z,12.90
2023-03-27T18:06:56.753Z,13.00
2023-03-27T18:09:24.348Z,13.20
2023-03-27T18:11:51.767Z,13.10
2023-03-27T18:14:19.161Z,13.10
2023-03-27T18:16:46.428Z,13.00
2023-03-27T18:19:14.675Z,13.00
2023-03-27T18:21:41.988Z,12.60
2023-03-27T18:24:12.367Z,12.10
2023-03-27T18:26:39.649Z,12.10
2023-03-27T18:29:07.382Z,12.40
2023-03-27T18:31:34.619Z,12.30
2023-03-27T18:34:02.044Z,12.50
2023-03-27T18:36:29.252Z,12.20
2023-03-27T18:38:57.256Z,12.00
2023-03-27T18:41:24.625Z,11.80
2023-03-27T18:43:52.151Z,11.70
2023-03-27T18:46:19.632Z,11.40
2023-03-27T18:48:49.276Z,11.30
2023-03-27T18:51:20.344Z,10.80
2023-03-27T18:53:50.507Z,10.40
2023-03-27T18:56:18.672Z,9.90
2023-03-27T18:58:45.900Z,9.80
2023-03-27T19:01:13.154Z,9.50
2023-03-27T19:03:40.785Z,9.40
2023-03-27T19:06:10.120Z,9.40
2023-03-27T19:08:38.141Z,9.50
2023-03-27T19:11:10.092Z,9.40
2023-03-27T19:13:37.303Z,9.50
2023-03-27T19:16:19.857Z,9.70
2023-03-27T19:18:52.867Z,9.70
2023-03-27T19:21:20.289Z,9.40
2023-03-27T19:26:37.712Z,9.50
2023-03-27T19:29:06.749Z,9.50
2023-03-27T19:31:34.985Z,9.40
2023-03-27T19:34:02.423Z,9.40
2023-03-27T19:36:31.063Z,9.40
2023-03-27T19:38:58.799Z,9.60
2023-03-27T19:41:27.161Z,9.50
2023-03-27T19:43:54.491Z,9.30
2023-03-27T19:46:23.260Z,9.30
2023-03-27T19:48:51.636Z,9.20
2023-03-27T19:51:19.226Z,9.20
2023-03-27T19:53:47.229Z,9.40
2023-03-27T19:56:20.783Z,9.50
2023-03-27T19:58:49.145Z,9.90
2023-03-27T20:01:28.963Z,9.80
2023-03-27T20:04:01.116Z,9.50
2023-03-27T20:06:30.450Z,9.00
2023-03-27T20:09:00.387Z,9.20
2023-03-27T20:11:28.642Z,9.20
2023-03-27T20:13:57.196Z,9.30
2023-03-27T20:16:29.157Z,8.80
2023-03-27T20:19:04.228Z,8.90
2023-03-27T20:21:38.116Z,9.10
2023-03-27T20:24:10.240Z,9.00
2023-03-27T20:26:39.501Z,8.90
2023-03-27T20:29:09.211Z,8.50
2023-03-27T20:31:48.287Z,8.50
2023-03-27T20:34:20.113Z,8.50
2023-03-27T20:36:49.426Z,8.50
2023-03-27T20:39:35.389Z,8.80
2023-03-27T20:42:02.867Z,8.80
2023-03-27T20:44:36.453Z,8.80
2023-03-27T20:47:11.290Z,8.90
2023-03-27T20:49:45.766Z,8.80
2023-03-27T20:52:18.328Z,8.80
2023-03-27T20:54:45.700Z,8.80
2023-03-27T20:57:13.283Z,8.90
2023-03-27T20:59:40.754Z,8.80
2023-03-27T21:02:20.233Z,8.90
2023-03-27T21:07:38.297Z,9.20
2023-03-27T21:10:08.705Z,9.40
2023-03-27T21:12:38.759Z,9.50
2023-03-27T21:15:10.927Z,9.60
2023-03-27T21:17:39.256Z,9.70
2023-03-27T21:20:08.221Z,9.70
2023-03-27T21:23:22.410Z,9.70
2023-03-27T21:26:00.396Z,9.60
2023-03-27T21:28:36.375Z,9.70
2023-03-27T21:31:40.780Z,9.80
2023-03-27T21:37:37.954Z,9.60
2023-03-27T21:40:12.186Z,9.70
2023-03-27T21:47:10.133Z,9.50
2023-03-27T21:49:42.619Z,9.30
2023-03-27T21:52:10.387Z,9.40
2023-03-27T21:54:47.430Z,9.50
2023-03-27T21:57:25.762Z,9.70
2023-03-27T21:59:53.991Z,9.80
2023-03-27T22:02:21.780Z,9.80
2023-03-27T22:04:49.277Z,9.50
2023-03-27T22:07:16.573Z,9.40
2023-03-27T22:09:44.666Z,9.50
2023-03-27T22:12:12.207Z,9.50
2023-03-27T22:14:39.761Z,9.30
2023-03-27T22:17:07.162Z,9.50
2023-03-27T22:19:34.309Z,9.50
2023-03-27T22:22:01.958Z,9.50
2023-03-27T22:24:29.465Z,9.60
2023-03-27T22:26:57.167Z,9.70
2023-03-27T22:29:24.699Z,9.70
2023-03-27T22:31:52.098Z,9.80
2023-03-27T22:34:19.369Z,9.60
2023-03-27T22:36:46.539Z,9.70
2023-03-27T22:39:13.953Z,9.50
2023-03-27T22:41:41.284Z,9.20
2023-03-27T22:44:08.554Z,8.90
2023-03-27T22:46:35.753Z,9.10
2023-03-27T22:49:03.135Z,8.80
2023-03-27T22:51:31.427Z,8.60
2023-03-27T22:53:58.776Z,8.40
2023-03-27T22:56:27.301Z,8.40
2023-03-27T22:58:54.497Z,8.40
2023-03-27T23:01:21.739Z,8.60
2023-03-27T23:03:49.183Z,8.90
2023-03-27T23:06:21.954Z,8.70
2023-03-27T23:08:50.293Z,8.80
2023-03-27T23:11:20.451Z,8.90
2023-03-27T23:13:47.942Z,8.90
2023-03-27T23:16:15.271Z,9.00
2023-03-27T23:18:42.602Z,9.00
2023-03-27T23:21:11.997Z,9.10
2023-03-27T23:23:40.622Z,9.10
2023-03-27T23:26:09.549Z,9.10
2023-03-27T23:28:39.855Z,9.10
2023-03-27T23:31:21.327Z,9.00
2023-03-27T23:33:53.505Z,8.80
2023-03-27T23:36:25.084Z,8.70
2023-03-27T23:38:53.423Z,8.70
2023-03-27T23:41:21.332Z,8.60
2023-03-27T23:43:49.644Z,8.50
2023-03-27T23:46:17.309Z,8.50
2023-03-27T23:48:45.113Z,8.50
2023-03-27T23:54:00.576Z,8.30
2023-03-27T23:56:29.188Z,8.40
2023-03-27T23:59:01.630Z,8.30
